Station History

Weather Underground - logo

Station Historical Data
Daily Summary for February 25, 2018 Units:  Metric    English   Both
« Previous Day
Next Day »
Daily Weekly Monthly Yearly Custom
  High: Low: Average:
Temperature: 16.4 °C -0.7 °C 7.8 °C
Dew Point: 4.9 °C -2.6 °C 0.7 °C
Humidity: 89 % 37 % 64 %
Wind Speed: 9.3 km/h 0 km/h 1.6 km/h
Wind Gust: 9.3 km/h - -
Wind:- - SSW
Pressure: 1029 hPa 1022.2 hPa -
Precipitation: 0 mm    
Historical Graphs
 
 
Tabular Data for February 25, 2018
Time Temperature Dew Point Pressure Wind Wind Speed Wind Gust Humidity Rainfall Rate (Hourly)
00:03 3.2 °C -1.6 °C 1026.3 hPa Calm     71 % 0 mm
00:08 3.3 °C -1.6 °C 1026.3 hPa Calm     70 % 0 mm
00:13 3.3 °C -1.4 °C 1026.3 hPa Calm     71 % 0 mm
00:18 3.2 °C -1.4 °C 1026.3 hPa Calm     72 % 0 mm
00:23 3 °C -1.6 °C 1026.3 hPa Calm     72 % 0 mm
00:28 2.9 °C -1.6 °C 1026.3 hPa ESE 1.9 km/h   72 % 0 mm
00:34 2.9 °C -1.6 °C 1026.3 hPa ESE 1.9 km/h   72 % 0 mm
00:39 3.3 °C -1.7 °C 1026.3 hPa ESE 5.6 km/h 5.6 km/h 70 % 0 mm
00:44 3.5 °C -1.7 °C 1026.3 hPa ESE 1.9 km/h   69 % 0 mm
00:49 3.5 °C -1.7 °C 1026.3 hPa ESE 1.9 km/h   69 % 0 mm
00:54 3.5 °C -1.7 °C 1026.3 hPa ESE 1.9 km/h   69 % 0 mm
00:59 3.4 °C -1.8 °C 1026.3 hPa Calm     69 % 0 mm
01:04 3.3 °C -1.7 °C 1026.3 hPa Calm     70 % 0 mm
01:09 3.2 °C -1.8 °C 1026.3 hPa Calm     70 % 0 mm
01:14 3.1 °C -1.7 °C 1026.3 hPa Calm     71 % 0 mm
01:19 2.9 °C -1.8 °C 1026.3 hPa Calm     71 % 0 mm
01:24 2.8 °C -1.7 °C 1026.3 hPa Calm     72 % 0 mm
01:29 2.7 °C -1.6 °C 1026.3 hPa Calm     73 % 0 mm
01:34 2.6 °C -1.7 °C 1026.3 hPa Calm     73 % 0 mm
01:39 2.4 °C -1.4 °C 1026.3 hPa Calm     76 % 0 mm
01:44 2.2 °C -1.4 °C 1026.3 hPa Calm     77 % 0 mm
01:49 1.9 °C -1.7 °C 1026.3 hPa Calm     77 % 0 mm
01:54 2.1 °C -1.4 °C 1026.3 hPa Calm     78 % 0 mm
01:59 1.9 °C -1.3 °C 1026.3 hPa ESE 1.9 km/h   79 % 0 mm
02:04 1.9 °C -1.2 °C 1026.3 hPa Calm     80 % 0 mm
02:09 2 °C -1.3 °C 1026.3 hPa Calm     79 % 0 mm
02:14 2.1 °C -1.4 °C 1026.3 hPa Calm     78 % 0 mm
02:19 2 °C -1.6 °C 1026.3 hPa Calm     77 % 0 mm
02:24 1.9 °C -1.7 °C 1026.3 hPa Calm     77 % 0 mm
02:29 1.8 °C -1.8 °C 1026.3 hPa Calm     77 % 0 mm
02:34 1.7 °C -1.7 °C 1026.3 hPa Calm     78 % 0 mm
02:39 1.6 °C -1.7 °C 1026.3 hPa Calm     79 % 0 mm
02:44 1.6 °C -1.7 °C 1026.3 hPa Calm     79 % 0 mm
02:49 1.6 °C -1.7 °C 1026.3 hPa Calm     79 % 0 mm
02:54 1.4 °C -1.8 °C 1026.3 hPa Calm     79 % 0 mm
02:59 1.1 °C -1.9 °C 1026.3 hPa Calm     80 % 0 mm
03:04 1.1 °C -2 °C 1026 hPa Calm     80 % 0 mm
03:09 1.1 °C -1.9 °C 1026.3 hPa Calm     80 % 0 mm
03:14 1.2 °C -1.9 °C 1026.3 hPa Calm     80 % 0 mm
03:19 1.2 °C -1.9 °C 1026.3 hPa Calm     80 % 0 mm
03:24 1.1 °C -2 °C 1026.3 hPa Calm     80 % 0 mm
03:29 0.9 °C -2 °C 1026.3 hPa Calm     81 % 0 mm
03:34 0.8 °C -1.9 °C 1026.3 hPa Calm     82 % 0 mm
03:39 0.7 °C -2.1 °C 1026.3 hPa Calm     82 % 0 mm
03:44 0.5 °C -2.2 °C 1026.3 hPa Calm     82 % 0 mm
03:49 0.4 °C -2.2 °C 1026.3 hPa Calm     83 % 0 mm
03:54 0.4 °C -1.8 °C 1026.3 hPa Calm     85 % 0 mm
03:59 0.5 °C -1.9 °C 1026.3 hPa Calm     84 % 0 mm
04:04 0.6 °C -1.8 °C 1026.3 hPa Calm     84 % 0 mm
04:09 0.4 °C -2.1 °C 1026.3 hPa Calm     83 % 0 mm
04:14 0.3 °C -2.3 °C 1026.3 hPa Calm     83 % 0 mm
04:19 0.2 °C -2.2 °C 1026.3 hPa Calm     84 % 0 mm
04:24 0.1 °C -2.3 °C 1026.6 hPa Calm     84 % 0 mm
04:29 0.1 °C -2.1 °C 1026.3 hPa Calm     85 % 0 mm
04:34 0.2 °C -2 °C 1026.3 hPa Calm     85 % 0 mm
04:39 0.4 °C -2.1 °C 1026.6 hPa Calm     83 % 0 mm
04:44 0.6 °C -2.1 °C 1026.6 hPa Calm     82 % 0 mm
04:49 0.7 °C -2.2 °C 1026.6 hPa Calm     81 % 0 mm
04:54 0.6 °C -2.1 °C 1026.6 hPa Calm     82 % 0 mm
04:59 0.5 °C -2.1 °C 1026.6 hPa Calm     83 % 0 mm
05:04 0.2 °C -2.2 °C 1026.6 hPa Calm     84 % 0 mm
05:10 -0.2 °C -2.6 °C 1027 hPa Calm     84 % 0 mm
05:15 -0.3 °C -2.4 °C 1027 hPa Calm     86 % 0 mm
05:20 -0.2 °C -1.9 °C 1027 hPa Calm     88 % 0 mm
05:25 0 °C -1.6 °C 1027 hPa Calm     89 % 0 mm
05:30 0.1 °C -1.6 °C 1027 hPa Calm     89 % 0 mm
05:35 0 °C -1.8 °C 1027.3 hPa Calm     88 % 0 mm
05:40 -0.1 °C -1.8 °C 1027.3 hPa Calm     88 % 0 mm
05:45 -0.2 °C -1.9 °C 1027.3 hPa Calm     88 % 0 mm
05:50 -0.2 °C -1.9 °C 1027.3 hPa Calm     88 % 0 mm
05:55 -0.2 °C -1.9 °C 1027.3 hPa Calm     88 % 0 mm
06:00 -0.3 °C -2 °C 1027.3 hPa Calm     88 % 0 mm
06:05 -0.3 °C -2.1 °C 1027.3 hPa Calm     88 % 0 mm
06:10 -0.4 °C -2.2 °C 1027.7 hPa Calm     88 % 0 mm
06:15 -0.4 °C -2.2 °C 1027.7 hPa Calm     88 % 0 mm
06:20 -0.5 °C -2.2 °C 1027.7 hPa Calm     88 % 0 mm
06:25 -0.4 °C -2.2 °C 1027.7 hPa Calm     88 % 0 mm
06:30 -0.4 °C -2.2 °C 1027.7 hPa Calm     88 % 0 mm
06:35 -0.6 °C -2.3 °C 1027.7 hPa Calm     88 % 0 mm
06:40 -0.6 °C -2.3 °C 1028 hPa Calm     88 % 0 mm
06:45 -0.7 °C -2.3 °C 1028 hPa Calm     89 % 0 mm
06:50 -0.6 °C -2.2 °C 1028 hPa Calm     89 % 0 mm
06:55 -0.5 °C -2.2 °C 1028 hPa Calm     88 % 0 mm
07:00 -0.3 °C -2 °C 1028 hPa Calm     88 % 0 mm
07:05 -0.1 °C -2 °C 1028.3 hPa Calm     87 % 0 mm
07:10 0.1 °C -1.8 °C 1028.3 hPa Calm     87 % 0 mm
07:15 0.2 °C -1.7 °C 1028.3 hPa Calm     87 % 0 mm
07:20 0.4 °C -1.4 °C 1028.3 hPa Calm     88 % 0 mm
07:25 0.5 °C -1.3 °C 1028.3 hPa Calm     88 % 0 mm
07:30 0.7 °C -1.1 °C 1028.3 hPa Calm     88 % 0 mm
07:35 1.1 °C -0.7 °C 1028.7 hPa Calm     88 % 0 mm
07:40 1.9 °C 0 °C 1028.7 hPa ESE 1.9 km/h 1.9 km/h 87 % 0 mm
07:45 2.9 °C 0.4 °C 1028.7 hPa Calm     84 % 0 mm
07:50 3.7 °C 0.6 °C 1028.7 hPa Calm     80 % 0 mm
07:55 4.3 °C 0.7 °C 1028.7 hPa SSE 3.7 km/h 3.7 km/h 77 % 0 mm
08:00 4.8 °C 0.6 °C 1028.7 hPa ESE 3.7 km/h 3.7 km/h 74 % 0 mm
08:05 5.1 °C 0.5 °C 1028.7 hPa ESE 1.9 km/h 1.9 km/h 72 % 0 mm
08:15 5.8 °C 0.8 °C 1028.7 hPa SE 1.9 km/h 1.9 km/h 70 % 0 mm
08:20 6.2 °C 0.9 °C 1029 hPa SE 5.6 km/h 5.6 km/h 69 % 0 mm
08:25 6.5 °C 0.8 °C 1029 hPa ESE 5.6 km/h 5.6 km/h 67 % 0 mm
08:30 6.9 °C 1.2 °C 1028.7 hPa ESE 1.9 km/h 1.9 km/h 67 % 0 mm
08:35 7.3 °C 1.1 °C 1029 hPa East 5.6 km/h 5.6 km/h 65 % 0 mm
08:40 7.6 °C 1.4 °C 1028.7 hPa SSE 1.9 km/h 1.9 km/h 65 % 0 mm
08:45 7.9 °C 1.3 °C 1029 hPa ESE 5.6 km/h 5.6 km/h 63 % 0 mm
08:50 8.1 °C 1 °C 1028.7 hPa East 5.6 km/h 5.6 km/h 61 % 0 mm
08:55 8.3 °C 1.4 °C 1028.7 hPa SSE 1.9 km/h 1.9 km/h 62 % 0 mm
09:00 8.9 °C 1.8 °C 1028.7 hPa Calm   0.2 km/h 61 % 0 mm
09:05 9.3 °C 1.7 °C 1028.7 hPa East 3.7 km/h 3.7 km/h 59 % 0 mm
09:10 9.4 °C 1.3 °C 1028.7 hPa ENE 5.6 km/h 5.6 km/h 57 % 0 mm
09:15 9.6 °C 1.2 °C 1028.7 hPa ESE 5.6 km/h 5.6 km/h 56 % 0 mm
09:20 9.8 °C 1.2 °C 1028.7 hPa ESE 5.6 km/h 5.6 km/h 55 % 0 mm
09:26 10.1 °C 0.9 °C 1028.7 hPa SSE 9.3 km/h 9.3 km/h 53 % 0 mm
09:31 10.2 °C 1.1 °C 1028.7 hPa SSE 5.6 km/h 5.6 km/h 53 % 0 mm
09:36 10.5 °C 1.1 °C 1028.7 hPa SSE 9.3 km/h 9.3 km/h 52 % 0 mm
09:41 10.7 °C 1.3 °C 1028.7 hPa ENE 5.6 km/h 5.6 km/h 52 % 0 mm
09:46 11 °C 1.5 °C 1028.7 hPa South 7.4 km/h 7.4 km/h 52 % 0 mm
09:51 11.4 °C 1.6 °C 1028.3 hPa ESE 7.4 km/h 7.4 km/h 51 % 0 mm
09:56 11.6 °C 1.8 °C 1028.3 hPa SSE 5.6 km/h 5.6 km/h 51 % 0 mm
10:01 11.7 °C 1.6 °C 1028.3 hPa South 5.6 km/h 5.6 km/h 50 % 0 mm
10:06 11.8 °C 1.7 °C 1028.3 hPa South 5.6 km/h 5.6 km/h 50 % 0 mm
10:11 11.9 °C 1.8 °C 1028.3 hPa SSE 5.6 km/h 5.6 km/h 50 % 0 mm
10:16 12.1 °C 2.2 °C 1028.3 hPa SSE 1.9 km/h 1.9 km/h 51 % 0 mm
10:21 11.9 °C 2.6 °C 1028.3 hPa South 4.8 km/h 4.8 km/h 53 % 0 mm
10:26 12.2 °C 2.8 °C 1028.3 hPa SSE 5.6 km/h 5.6 km/h 53 % 0 mm
10:31 12.3 °C 2.4 °C 1028.3 hPa NE 5.6 km/h 5.6 km/h 51 % 0 mm
10:36 12.6 °C 3 °C 1028 hPa ESE 7.4 km/h 7.4 km/h 52 % 0 mm
10:41 12.5 °C 2.6 °C 1028 hPa WNW 5.6 km/h 5.6 km/h 51 % 0 mm
10:46 12.6 °C 3.6 °C 1028 hPa NNW 5.6 km/h 5.6 km/h 54 % 0 mm
10:51 12.9 °C 3.6 °C 1028 hPa NNW 5.6 km/h 5.6 km/h 53 % 0 mm
10:56 13.1 °C 4 °C 1028 hPa WSW 1.9 km/h 1.9 km/h 54 % 0 mm
11:01 13.4 °C 3.4 °C 1028 hPa West 3.7 km/h 3.7 km/h 51 % 0 mm
11:06 13.4 °C 4 °C 1028 hPa SSW 4.8 km/h 4.8 km/h 53 % 0 mm
11:11 13.7 °C 4 °C 1028 hPa SSW 5.6 km/h 5.6 km/h 52 % 0 mm
11:16 13.8 °C 4.4 °C 1027.7 hPa South 3.7 km/h 3.7 km/h 53 % 0 mm
11:21 14.1 °C 4.3 °C 1027.7 hPa SE 5.6 km/h 5.6 km/h 52 % 0 mm
11:26 13.9 °C 4.2 °C 1027.3 hPa NW 3.7 km/h 3.7 km/h 52 % 0 mm
11:31 13.8 °C 4.4 °C 1027.3 hPa SSE 5.6 km/h 5.6 km/h 53 % 0 mm
11:36 14.1 °C 4.6 °C 1027.3 hPa NW 5.6 km/h 5.6 km/h 53 % 0 mm
11:41 14.1 °C 4.9 °C 1027.3 hPa SE 5.6 km/h 5.6 km/h 54 % 0 mm
11:46 14.1 °C 4.7 °C 1027 hPa NNW 3.7 km/h 3.7 km/h 53 % 0 mm
11:51 14.1 °C 4.1 °C 1027 hPa NW 5.6 km/h 5.6 km/h 51 % 0 mm
11:56 14.2 °C 4.5 °C 1027 hPa ESE 5.6 km/h 5.6 km/h 52 % 0 mm
12:01 14.6 °C 4.5 °C 1026.6 hPa NW 5.6 km/h 5.6 km/h 51 % 0 mm
12:06 14.4 °C 4.4 °C 1026.6 hPa NE 3.7 km/h 3.7 km/h 51 % 0 mm
12:11 14.8 °C 4.2 °C 1026.6 hPa SW 5.6 km/h 5.6 km/h 49 % 0 mm
12:16 14.9 °C 4.6 °C 1026.6 hPa SSE 5.6 km/h 5.6 km/h 50 % 0 mm
12:21 15 °C 4.4 °C 1026.3 hPa WNW 1.9 km/h 1.9 km/h 49 % 0 mm
12:26 15.2 °C 4.8 °C 1026.3 hPa NW 3.7 km/h 3.7 km/h 50 % 0 mm
12:31 15.5 °C 4.8 °C 1026.3 hPa WNW 4.8 km/h 4.8 km/h 49 % 0 mm
12:36 15.4 °C 3.8 °C 1026.3 hPa NW 5.6 km/h 5.6 km/h 46 % 0 mm
12:41 15.1 °C 3.8 °C 1026 hPa NW 1.9 km/h 1.9 km/h 47 % 0 mm
12:46 14.8 °C 3.6 °C 1026 hPa SSW 5.6 km/h 5.6 km/h 47 % 0 mm
12:51 15.2 °C 3.9 °C 1026 hPa NNW 5.6 km/h 5.6 km/h 47 % 0 mm
12:56 15.1 °C 3.2 °C 1025.6 hPa NNW 1.9 km/h   45 % 0 mm
13:01 15.2 °C 2.7 °C 1025.6 hPa NW 1.9 km/h 2.3 km/h 43 % 0 mm
13:06 15 °C 2.8 °C 1025.3 hPa WNW 9.3 km/h 9.3 km/h 44 % 0 mm
13:11 15.3 °C 3.4 °C 1025.3 hPa South 5.6 km/h 5.6 km/h 45 % 0 mm
13:16 15.9 °C 2.3 °C 1025.3 hPa NNW 5.6 km/h 5.6 km/h 40 % 0 mm
13:22 15.4 °C 2.6 °C 1025.3 hPa South 3.7 km/h 3.7 km/h 42 % 0 mm
13:27 15.9 °C 2.7 °C 1024.9 hPa SSE 1.9 km/h 1.9 km/h 41 % 0 mm
13:32 16.2 °C 2.6 °C 1024.9 hPa WNW 1.9 km/h 1.9 km/h 40 % 0 mm
13:37 16.4 °C 2 °C 1024.9 hPa NNW 1.9 km/h 1.9 km/h 38 % 0 mm
13:42 16.3 °C 1.9 °C 1024.6 hPa WNW 1.9 km/h 1.9 km/h 38 % 0 mm
13:47 16 °C 2.1 °C 1024.6 hPa WNW 1.9 km/h   39 % 0 mm
13:52 16.2 °C 2.6 °C 1024.6 hPa East 3.7 km/h 3.7 km/h 40 % 0 mm
13:57 16.4 °C 2.1 °C 1024.6 hPa NW 3.7 km/h 3.7 km/h 38 % 0 mm
14:02 16.3 °C 2.3 °C 1024.6 hPa North 4.8 km/h 4.8 km/h 39 % 0 mm
14:07 16.1 °C 2.1 °C 1024.6 hPa NNE 1.9 km/h 1.9 km/h 39 % 0 mm
14:12 15.9 °C 2 °C 1024.6 hPa NNW 5.6 km/h 5.6 km/h 39 % 0 mm
14:17 15.8 °C 2.6 °C 1024.3 hPa WNW 3.2 km/h 3.2 km/h 41 % 0 mm
14:22 15.8 °C 2.6 °C 1024.3 hPa Calm     41 % 0 mm
14:27 15.8 °C 2.2 °C 1024.3 hPa West 4.8 km/h 4.8 km/h 40 % 0 mm
14:32 15.8 °C 1.9 °C 1023.9 hPa NW 5.6 km/h 5.6 km/h 39 % 0 mm
14:37 15.8 °C 2.2 °C 1023.9 hPa NW 1.9 km/h 1.9 km/h 40 % 0 mm
14:42 16.1 °C 2.4 °C 1023.9 hPa South 3.7 km/h 3.7 km/h 40 % 0 mm
14:47 16.1 °C 2.1 °C 1023.9 hPa WSW 5.6 km/h 5.6 km/h 39 % 0 mm
14:52 16 °C 2.1 °C 1023.9 hPa Calm     39 % 0 mm
14:57 16 °C 1.7 °C 1023.9 hPa WNW 3.7 km/h 3.7 km/h 38 % 0 mm
15:02 15.9 °C 1.6 °C 1023.6 hPa Calm     38 % 0 mm
15:07 16 °C 2.1 °C 1023.6 hPa WNW 3.7 km/h 3.7 km/h 39 % 0 mm
15:12 16.1 °C 1.7 °C 1023.6 hPa West 5.6 km/h 5.6 km/h 38 % 0 mm
15:17 16 °C 1.3 °C 1023.6 hPa WNW 5.6 km/h 5.6 km/h 37 % 0 mm
15:22 15.8 °C 2.2 °C 1023.2 hPa South 1.9 km/h   40 % 0 mm
15:27 15.9 °C 2.3 °C 1023.2 hPa SSE 3.7 km/h 3.7 km/h 40 % 0 mm
15:32 16.1 °C 2.4 °C 1023.2 hPa NW 3.7 km/h 3.7 km/h 40 % 0 mm
15:37 15.8 °C 1.9 °C 1023.2 hPa NW 3.2 km/h   39 % 0 mm
15:42 15.7 °C 1.7 °C 1022.9 hPa NW 3.7 km/h 3.7 km/h 39 % 0 mm
15:47 15.6 °C 1.7 °C 1022.9 hPa West 1.9 km/h 1.9 km/h 39 % 0 mm
15:52 15.5 °C 2.3 °C 1022.9 hPa NW 5.6 km/h 5.6 km/h 41 % 0 mm
15:57 15.5 °C 1.6 °C 1022.9 hPa NW 5.6 km/h 5.6 km/h 39 % 0 mm
16:02 15.4 °C 1.6 °C 1022.9 hPa NW 5.6 km/h 5.6 km/h 39 % 0 mm
16:07 15.4 °C 1.5 °C 1022.9 hPa WNW 3.7 km/h 3.7 km/h 39 % 0 mm
16:12 15.4 °C 1.2 °C 1022.9 hPa NW 1.9 km/h 1.9 km/h 38 % 0 mm
16:17 15.6 °C 1.3 °C 1022.9 hPa NNW 1.9 km/h 1.9 km/h 38 % 0 mm
16:22 15.6 °C 0.9 °C 1022.6 hPa Calm     37 % 0 mm
16:27 15.4 °C 0.8 °C 1022.6 hPa Calm     37 % 0 mm
16:32 15.3 °C 0.7 °C 1022.6 hPa Calm     37 % 0 mm
16:37 15.2 °C 0.6 °C 1022.6 hPa Calm     37 % 0 mm
16:42 15.1 °C 1.6 °C 1022.9 hPa Calm     40 % 0 mm
16:47 15 °C 1.2 °C 1022.6 hPa NW 1.9 km/h   39 % 0 mm
16:52 14.9 °C 1.1 °C 1022.6 hPa Calm     39 % 0 mm
16:57 14.8 °C 0.9 °C 1022.9 hPa Calm     39 % 0 mm
17:02 14.7 °C 1.6 °C 1022.6 hPa Calm     41 % 0 mm
17:07 14.5 °C 1.1 °C 1022.6 hPa Calm     40 % 0 mm
17:12 14.4 °C 1 °C 1022.6 hPa Calm     40 % 0 mm
17:17 14.4 °C 1.3 °C 1022.6 hPa Calm     41 % 0 mm
17:22 14.2 °C 1.8 °C 1022.6 hPa Calm     43 % 0 mm
17:27 14 °C 1.6 °C 1022.9 hPa Calm     43 % 0 mm
17:32 13.7 °C 1.7 °C 1022.9 hPa Calm     44 % 0 mm
17:37 13.5 °C 1.8 °C 1022.9 hPa Calm     45 % 0 mm
17:42 13.2 °C 1.8 °C 1022.6 hPa Calm     46 % 0 mm
17:47 12.9 °C 1.9 °C 1022.9 hPa Calm     47 % 0 mm
17:52 12.6 °C 2.4 °C 1022.9 hPa Calm     50 % 0 mm
17:57 12.2 °C 2.3 °C 1022.6 hPa Calm     51 % 0 mm
18:02 11.8 °C 2.2 °C 1022.9 hPa Calm     52 % 0 mm
18:07 11.4 °C 2.4 °C 1022.9 hPa Calm     54 % 0 mm
18:12 11.1 °C 2.7 °C 1022.9 hPa Calm     56 % 0 mm
18:17 11 °C 2.3 °C 1022.9 hPa SSE 1.6 km/h 1.6 km/h 55 % 0 mm
18:22 10.8 °C 2.4 °C 1022.9 hPa Calm     56 % 0 mm
18:27 10.6 °C 2.4 °C 1022.9 hPa Calm     57 % 0 mm
18:32 10.4 °C 2.3 °C 1022.9 hPa Calm     57 % 0 mm
18:37 10.2 °C 2.6 °C 1022.9 hPa Calm     59 % 0 mm
18:42 9.9 °C 2.1 °C 1022.9 hPa Calm     58 % 0 mm
18:47 9.7 °C 2.5 °C 1022.9 hPa Calm     61 % 0 mm
18:52 9.5 °C 2.3 °C 1022.9 hPa Calm     61 % 0 mm
18:57 9.3 °C 2.1 °C 1022.9 hPa Calm     61 % 0 mm
19:02 9 °C 2.1 °C 1022.9 hPa Calm     62 % 0 mm
19:07 8.8 °C 2.2 °C 1022.9 hPa Calm     63 % 0 mm
19:12 8.7 °C 2.5 °C 1022.9 hPa Calm     65 % 0 mm
19:17 8.6 °C 2.6 °C 1022.9 hPa Calm     66 % 0 mm
19:22 8.6 °C 2.6 °C 1022.9 hPa Calm     66 % 0 mm
19:27 8.4 °C 2.2 °C 1022.9 hPa Calm     65 % 0 mm
19:33 8.4 °C 1.9 °C 1022.9 hPa Calm     64 % 0 mm
19:38 8.4 °C 1.7 °C 1022.9 hPa Calm     63 % 0 mm
19:43 8.4 °C 1.8 °C 1022.9 hPa Calm     63 % 0 mm
19:48 8.4 °C 1.8 °C 1022.9 hPa Calm     63 % 0 mm
19:53 8.4 °C 1.7 °C 1022.9 hPa Calm     63 % 0 mm
19:58 8.3 °C 1.7 °C 1022.9 hPa Calm     63 % 0 mm
20:03 8.5 °C 1.6 °C 1022.9 hPa Calm     62 % 0 mm
20:08 8.6 °C 1.3 °C 1022.9 hPa Calm     60 % 0 mm
20:13 8.6 °C 1.5 °C 1022.9 hPa Calm     61 % 0 mm
20:18 8.6 °C 1.2 °C 1022.9 hPa Calm     60 % 0 mm
20:23 8.5 °C 1.2 °C 1022.9 hPa Calm     60 % 0 mm
20:28 8.4 °C 1.1 °C 1022.9 hPa Calm     60 % 0 mm
20:33 8.4 °C 1.1 °C 1022.9 hPa Calm     60 % 0 mm
20:38 8.3 °C 0.9 °C 1022.9 hPa Calm     60 % 0 mm
20:43 8.2 °C 0.9 °C 1022.9 hPa Calm     60 % 0 mm
20:48 8.1 °C 1 °C 1022.9 hPa Calm     61 % 0 mm
20:53 7.9 °C 1.1 °C 1023.2 hPa Calm     62 % 0 mm
20:58 7.6 °C 1.4 °C 1023.2 hPa Calm     65 % 0 mm
21:03 7.2 °C 1 °C 1023.2 hPa Calm     65 % 0 mm
21:08 6.9 °C 1.4 °C 1023.2 hPa Calm     68 % 0 mm
21:13 6.8 °C 1.1 °C 1023.2 hPa Calm     67 % 0 mm
21:18 6.5 °C 1.4 °C 1022.9 hPa Calm     70 % 0 mm
21:23 6.3 °C 1.6 °C 1022.9 hPa Calm     72 % 0 mm
21:28 5.9 °C 1.3 °C 1022.9 hPa Calm     72 % 0 mm
21:33 5.8 °C 1.4 °C 1023.2 hPa Calm     73 % 0 mm
21:38 5.7 °C 1.2 °C 1022.9 hPa Calm     73 % 0 mm
21:42 5.4 °C 1.1 °C 1022.9 hPa Calm     74 % 0 mm
21:47 5.1 °C 1 °C 1022.9 hPa Calm     75 % 0 mm
21:52 4.9 °C 1.1 °C 1022.9 hPa Calm     76 % 0 mm
21:57 5 °C 1.1 °C 1022.9 hPa Calm     76 % 0 mm
22:02 5.2 °C 1.1 °C 1022.9 hPa Calm     75 % 0 mm
22:07 5.2 °C 1.1 °C 1022.9 hPa Calm     75 % 0 mm
22:12 5.2 °C 1.3 °C 1022.9 hPa Calm     76 % 0 mm
22:17 5.1 °C 1.2 °C 1022.9 hPa Calm     76 % 0 mm
22:22 5.2 °C 1.1 °C 1022.9 hPa Calm     75 % 0 mm
22:27 5.3 °C 1.3 °C 1022.9 hPa Calm     75 % 0 mm
22:32 5.4 °C 1.1 °C 1022.9 hPa Calm     74 % 0 mm
22:37 5.3 °C 0.9 °C 1022.9 hPa Calm     73 % 0 mm
22:42 4.8 °C 0.6 °C 1022.9 hPa Calm     74 % 0 mm
22:47 4.4 °C 0.5 °C 1022.9 hPa Calm     76 % 0 mm
22:52 4.1 °C 0.6 °C 1022.9 hPa Calm     78 % 0 mm
22:57 3.8 °C 0.5 °C 1022.6 hPa Calm     79 % 0 mm
23:02 3.7 °C 0.6 °C 1022.6 hPa Calm     80 % 0 mm
23:07 3.6 °C 0.6 °C 1022.6 hPa Calm     81 % 0 mm
23:12 3.4 °C 0.5 °C 1022.6 hPa Calm     81 % 0 mm
23:17 3.4 °C 0.6 °C 1022.6 hPa Calm     82 % 0 mm
23:22 3.3 °C 0.3 °C 1022.6 hPa Calm     81 % 0 mm
23:27 3.2 °C 0.4 °C 1022.6 hPa Calm     82 % 0 mm
23:32 3.2 °C 0.6 °C 1022.6 hPa Calm     83 % 0 mm
23:37 3.1 °C 0.5 °C 1022.6 hPa Calm     83 % 0 mm
23:42 3.2 °C 0.4 °C 1022.6 hPa Calm     82 % 0 mm
23:47 3.2 °C 0.6 °C 1022.2 hPa Calm     83 % 0 mm
23:52 3.2 °C 0.4 °C 1022.2 hPa Calm     82 % 0 mm
23:57 3.3 °C 0.5 °C 1022.2 hPa Calm     82 % 0 mm
Park Place, Exeter, Tulare County, California, USA
Compliments of Weather Underground - 2.75 mb